Time;durP1;ratioP1;P1;durP2;ratioP2;P2;SDS_P1;SDS_P2;PMS_P1;PMS_P2;Temp;Humidity;BMP_temperature;BMP_pressure;BME280_temperature;BME280_humidity;BME280_pressure;Samples;Min_cycle;Max_cycle;Signal;HPM_P1;HPM_P2
2023/06/25 00:00:19;;;;;;;7.80;7.10;;;20.20;99.90;;;;;;5082922;28;20434;-77
2023/06/25 00:02:50;;;;;;;7.20;6.50;;;20.50;99.90;;;;;;5082562;28;20485;-78
2023/06/25 00:08:30;;;;;;;8.53;7.40;;;20.50;99.90;;;;;;5082011;28;20432;-77
2023/06/25 00:11:35;;;;;;;8.17;7.53;;;20.40;99.90;;;;;;5083160;28;20538;-78
2023/06/25 00:18:18;;;;;;;8.50;7.67;;;20.30;99.90;;;;;;5067884;28;20435;-77
2023/06/25 00:24:57;;;;;;;9.00;8.30;;;20.20;99.90;;;;;;5092150;28;20472;-77
2023/06/25 00:31:15;;;;;;;8.10;7.40;;;20.10;99.90;;;;;;5086027;28;20489;-76
2023/06/25 00:34:24;;;;;;;7.60;6.90;;;20.10;99.90;;;;;;5048196;28;20452;-78
2023/06/25 00:40:26;;;;;;;8.13;7.53;;;20.00;99.90;;;;;;5092278;28;20423;-77
2023/06/25 00:45:58;;;;;;;8.90;8.10;;;20.00;99.90;;;;;;5093658;28;20418;-78
2023/06/25 00:48:40;;;;;;;8.87;8.10;;;19.90;99.90;;;;;;5093703;28;20476;-76
2023/06/25 00:51:34;;;;;;;8.47;7.77;;;19.90;99.90;;;;;;5093894;28;20441;-76
2023/06/25 00:57:27;;;;;;;8.17;7.47;;;19.70;99.90;;;;;;5084879;28;20450;-76
2023/06/25 00:59:59;;;;;;;9.03;8.10;;;19.70;99.90;;;;;;5090657;28;20522;-77
2023/06/25 01:02:43;;;;;;;9.87;9.07;;;19.70;99.90;;;;;;5089577;28;20923;-77
2023/06/25 01:05:19;;;;;;;10.90;8.13;;;19.60;99.90;;;;;;5086187;28;20439;-78
2023/06/25 01:10:47;;;;;;;9.43;8.63;;;19.50;99.90;;;;;;5078164;28;20465;-78
2023/06/25 01:16:11;;;;;;;11.57;10.37;;;19.40;99.90;;;;;;5086050;28;20449;-78
2023/06/25 01:18:42;;;;;;;12.00;10.90;;;19.40;99.90;;;;;;5086303;28;20450;-78
2023/06/25 01:21:13;;;;;;;12.67;11.33;;;19.40;99.90;;;;;;5086129;28;20458;-77
2023/06/25 01:24:07;;;;;;;12.23;11.03;;;19.30;99.90;;;;;;5087258;28;20540;-78
2023/06/25 01:26:56;;;;;;;;;;;;;;;;;;;;;
2023/06/25 01:29:34;;;;;;;12.70;11.50;;;19.20;99.90;;;;;;5086814;28;20465;-77
2023/06/25 01:34:50;;;;;;;12.57;11.40;;;19.20;99.90;;;;;;5086334;28;21006;-77
2023/06/25 01:37:23;;;;;;;10.80;9.70;;;19.20;99.90;;;;;;5090180;28;20483;-78
2023/06/25 01:40:02;;;;;;;11.67;10.50;;;19.10;99.90;;;;;;5090695;28;20575;-77
2023/06/25 01:42:56;;;;;;;10.57;9.60;;;19.10;99.90;;;;;;5088311;28;20467;-77
2023/06/25 01:45:34;;;;;;;11.43;10.20;;;19.10;99.90;;;;;;5080191;28;20461;-78
2023/06/25 01:48:05;;;;;;;9.33;8.53;;;19.10;99.90;;;;;;5091130;28;20446;-78
2023/06/25 01:50:36;;;;;;;11.53;10.40;;;19.10;99.90;;;;;;5084418;28;20481;-78
2023/06/25 01:53:08;;;;;;;10.23;9.27;;;19.10;99.90;;;;;;5082373;28;20474;-77
2023/06/25 01:55:43;;;;;;;10.40;9.30;;;19.00;99.90;;;;;;5080649;28;20543;-78
2023/06/25 01:58:13;;;;;;;11.60;10.60;;;19.00;99.90;;;;;;5081864;28;20439;-77
2023/06/25 02:00:47;;;;;;;11.07;10.00;;;18.90;99.90;;;;;;5080470;28;20437;-77
2023/06/25 02:03:24;;;;;;;10.80;9.90;;;18.90;99.90;;;;;;5079301;28;20486;-77
2023/06/25 02:06:03;;;;;;;10.47;9.57;;;18.90;99.90;;;;;;5079498;28;20496;-77
2023/06/25 02:08:34;;;;;;;11.10;10.10;;;18.90;99.90;;;;;;5080719;28;20465;-77
2023/06/25 02:11:07;;;;;;;11.30;10.13;;;18.90;99.90;;;;;;5081061;28;21076;-77
2023/06/25 02:16:59;;;;;;;11.80;10.53;;;18.90;99.90;;;;;;5138631;27;20485;-78
2023/06/25 02:19:33;;;;;;;13.53;10.50;;;18.80;99.90;;;;;;5116963;28;20447;-76
2023/06/25 02:22:10;;;;;;;11.70;10.63;;;18.70;99.90;;;;;;5113290;28;20452;-78
2023/06/25 02:24:48;;;;;;;11.10;10.00;;;18.60;99.90;;;;;;5098659;28;20433;-76
2023/06/25 02:27:16;;;;;;;11.23;10.07;;;18.60;99.90;;;;;;5096548;28;20441;-77
2023/06/25 02:29:47;;;;;;;11.63;10.50;;;18.50;99.90;;;;;;5097998;28;20453;-78
2023/06/25 02:32:23;;;;;;;12.13;10.80;;;18.50;99.90;;;;;;5097641;28;20545;-77
2023/06/25 02:34:57;;;;;;;12.67;11.50;;;18.50;99.90;;;;;;5094617;28;20596;-77
2023/06/25 02:37:32;;;;;;;12.70;10.87;;;18.50;99.90;;;;;;5093639;28;20462;-78
2023/06/25 02:40:06;;;;;;;12.80;11.30;;;18.40;99.90;;;;;;5094650;28;20446;-76
2023/06/25 02:42:37;;;;;;;12.80;10.73;;;18.40;99.90;;;;;;5094472;28;20982;-77
2023/06/25 02:45:17;;;;;;;13.83;12.40;;;18.40;99.90;;;;;;5093922;28;20451;-76
2023/06/25 02:48:03;;;;;;;11.70;10.47;;;18.40;99.90;;;;;;5093453;28;20448;-77
2023/06/25 02:50:45;;;;;;;12.63;11.43;;;18.20;99.90;;;;;;5095254;28;20445;-78
2023/06/25 02:53:38;;;;;;;12.20;10.97;;;18.20;99.90;;;;;;5095879;28;20478;-77
2023/06/25 02:56:34;;;;;;;11.87;10.83;;;18.20;99.90;;;;;;5096028;28;21000;-77
2023/06/25 02:59:13;;;;;;;14.03;11.20;;;18.30;99.90;;;;;;5095041;28;21015;-77
2023/06/25 03:01:52;;;;;;;12.90;11.70;;;18.30;99.90;;;;;;5093670;28;21128;-77
2023/06/25 03:04:24;;;;;;;12.17;10.97;;;18.30;99.90;;;;;;5094517;28;20984;-78
2023/06/25 03:06:56;;;;;;;14.30;12.90;;;18.30;99.90;;;;;;5094782;28;20518;-77
2023/06/25 03:09:30;;;;;;;13.30;11.90;;;18.30;99.90;;;;;;5095839;28;20812;-78
2023/06/25 03:12:02;;;;;;;13.70;12.40;;;18.20;99.90;;;;;;5094722;28;20515;-78
2023/06/25 03:14:38;;;;;;;12.63;11.37;;;18.10;99.90;;;;;;5096010;28;20452;-76
2023/06/25 03:17:12;;;;;;;12.70;11.50;;;18.00;99.90;;;;;;5095302;28;20537;-76
2023/06/25 03:20:12;;;;;;;13.67;12.37;;;18.00;99.90;;;;;;5096002;28;20943;-78
2023/06/25 03:23:13;;;;;;;12.53;11.43;;;18.00;99.90;;;;;;5093964;28;20469;-78
2023/06/25 03:29:14;;;;;;;;;;;;;;;;;;;;;
2023/06/25 03:32:16;;;;;;;14.47;12.97;;;17.90;99.90;;;;;;5058973;28;20442;-77
2023/06/25 03:35:17;;;;;;;13.00;11.77;;;17.80;99.90;;;;;;5040302;28;20442;-76
2023/06/25 03:37:57;;;;;;;13.57;12.17;;;17.80;99.90;;;;;;5064766;28;20480;-77
2023/06/25 03:40:33;;;;;;;12.93;11.70;;;17.90;99.90;;;;;;5079343;28;20463;-77
2023/06/25 03:43:01;;;;;;;13.73;12.30;;;17.90;99.90;;;;;;5079560;28;20441;-77
2023/06/25 03:45:37;;;;;;;13.17;11.97;;;17.90;99.90;;;;;;5079500;28;20430;-77
2023/06/25 03:48:12;;;;;;;12.17;11.07;;;17.90;99.90;;;;;;5079291;28;20446;-76
2023/06/25 03:51:00;;;;;;;12.80;11.60;;;17.80;99.90;;;;;;5079855;28;20429;-76
2023/06/25 03:56:45;;;;;;;13.73;12.33;;;17.80;99.90;;;;;;5075667;28;20486;-78
2023/06/25 03:59:26;;;;;;;14.50;12.37;;;17.70;99.90;;;;;;5076534;28;20448;-79
2023/06/25 04:01:58;;;;;;;13.57;12.27;;;17.70;99.90;;;;;;5077970;28;20424;-77
2023/06/25 04:04:32;;;;;;;13.30;11.87;;;17.70;99.90;;;;;;5078471;28;20427;-78
2023/06/25 04:07:02;;;;;;;14.73;11.87;;;17.70;99.90;;;;;;5078957;28;20538;-77
2023/06/25 04:09:37;;;;;;;12.80;11.50;;;17.50;99.90;;;;;;5078646;28;20465;-76
2023/06/25 04:12:15;;;;;;;14.40;11.97;;;17.50;99.90;;;;;;5070880;28;20451;-76
2023/06/25 04:14:43;;;;;;;13.30;12.10;;;17.60;99.90;;;;;;5014980;28;20466;-78
2023/06/25 04:17:14;;;;;;;13.73;12.40;;;17.70;99.90;;;;;;5064090;28;20868;-77
2023/06/25 04:19:58;;;;;;;13.70;12.17;;;17.80;99.90;;;;;;5066733;28;20482;-76
2023/06/25 04:22:34;;;;;;;13.37;11.97;;;17.70;99.90;;;;;;5066968;28;20473;-76
2023/06/25 04:25:05;;;;;;;14.07;11.90;;;17.70;99.90;;;;;;5066060;28;20445;-77
2023/06/25 04:27:35;;;;;;;13.33;12.03;;;17.80;99.90;;;;;;5062789;28;20437;-77
2023/06/25 04:30:06;;;;;;;13.17;11.77;;;17.70;99.90;;;;;;5060268;28;20508;-77
2023/06/25 04:32:36;;;;;;;13.10;11.90;;;17.80;99.90;;;;;;5062241;28;20546;-77
2023/06/25 04:35:20;;;;;;;11.40;10.30;;;17.90;99.90;;;;;;5060407;28;20450;-77
2023/06/25 04:37:52;;;;;;;12.03;10.83;;;17.90;99.90;;;;;;5054947;28;20540;-78
2023/06/25 04:40:20;;;;;;;12.03;11.03;;;18.00;99.90;;;;;;5064303;28;20457;-78
2023/06/25 04:42:48;;;;;;;13.13;10.30;;;18.10;99.90;;;;;;5075392;28;20478;-78
2023/06/25 04:45:21;;;;;;;11.67;10.40;;;18.20;99.90;;;;;;5076364;28;20457;-77
2023/06/25 04:47:52;;;;;;;11.17;10.17;;;18.30;99.90;;;;;;5077413;28;20517;-78
2023/06/25 04:50:23;;;;;;;11.13;10.03;;;18.30;99.90;;;;;;5080115;28;20516;-77
2023/06/25 04:53:04;;;;;;;11.53;10.40;;;18.40;99.90;;;;;;5081190;28;20473;-78
2023/06/25 04:55:37;;;;;;;11.80;10.70;;;18.40;99.90;;;;;;5082574;28;20474;-78
2023/06/25 04:58:13;;;;;;;12.83;11.57;;;18.60;99.90;;;;;;5084183;28;20454;-78
2023/06/25 05:00:51;;;;;;;11.40;10.03;;;18.60;99.90;;;;;;5097090;28;20439;-78
2023/06/25 05:03:44;;;;;;;11.27;10.27;;;18.40;99.90;;;;;;5097014;28;20471;-77
2023/06/25 05:06:36;;;;;;;11.00;10.10;;;18.30;99.90;;;;;;5097368;28;20444;-77
2023/06/25 05:09:36;;;;;;;;;;;;;;;;;;;;;
2023/06/25 05:12:16;;;;;;;10.77;9.67;;;18.90;99.90;;;;;;5096970;28;20412;-77
2023/06/25 05:14:57;;;;;;;;;;;;;;;;;;;;;
2023/06/25 05:17:40;;;;;;;11.20;10.30;;;19.10;99.90;;;;;;5097020;28;20462;-75
2023/06/25 05:20:27;;;;;;;11.00;10.10;;;19.10;99.90;;;;;;5094667;28;20469;-78
2023/06/25 05:23:35;;;;;;;10.73;9.67;;;19.30;99.90;;;;;;5094222;28;20479;-78
2023/06/25 05:26:23;;;;;;;10.27;9.47;;;19.40;99.90;;;;;;5027538;28;20439;-77
2023/06/25 05:28:52;;;;;;;9.80;8.80;;;19.60;99.90;;;;;;5031541;28;20525;-76
2023/06/25 05:31:41;;;;;;;9.60;8.80;;;19.70;99.90;;;;;;5030038;28;21014;-78
2023/06/25 05:34:34;;;;;;;8.70;7.90;;;19.90;99.90;;;;;;5024975;28;20480;-77
2023/06/25 05:37:32;;;;;;;9.40;8.00;;;20.00;99.90;;;;;;5025911;28;20485;-77
2023/06/25 05:40:19;;;;;;;8.93;8.13;;;20.10;99.90;;;;;;5021535;28;20448;-76
2023/06/25 05:43:19;;;;;;;8.90;8.20;;;20.20;99.90;;;;;;5034877;28;20485;-77
2023/06/25 05:46:04;;;;;;;8.37;7.67;;;20.30;99.90;;;;;;5086683;28;20455;-77
2023/06/25 05:52:31;;;;;;;13.63;12.53;;;20.50;99.90;;;;;;5095024;28;20491;-77
2023/06/25 05:59:10;;;;;;;8.87;8.07;;;20.70;99.90;;;;;;4880763;29;20428;-77
2023/06/25 06:01:48;;;;;;;8.57;7.50;;;20.90;99.90;;;;;;5011903;28;20511;-77
2023/06/25 06:04:50;;;;;;;8.23;7.53;;;21.00;99.90;;;;;;5043214;28;20447;-77
2023/06/25 06:07:22;;;;;;;7.70;7.20;;;21.00;99.90;;;;;;5087365;28;20447;-77
2023/06/25 06:09:50;;;;;;;7.80;7.17;;;21.10;99.90;;;;;;5094724;28;20497;-77
2023/06/25 06:12:18;;;;;;;8.03;7.33;;;21.20;99.90;;;;;;5095367;28;20493;-77
2023/06/25 06:14:56;;;;;;;7.67;7.07;;;21.10;99.90;;;;;;5094955;28;20452;-75
2023/06/25 06:17:33;;;;;;;9.10;8.40;;;21.30;99.90;;;;;;5094566;28;20472;-76
2023/06/25 06:20:09;;;;;;;7.73;7.13;;;21.40;99.90;;;;;;5095121;28;20524;-76
2023/06/25 06:22:52;;;;;;;7.63;6.93;;;21.50;99.90;;;;;;5092947;28;20467;-77
2023/06/25 06:25:19;;;;;;;7.57;6.97;;;;;;;;;;5092651;28;20433;-76
2023/06/25 06:28:00;;;;;;;8.00;7.30;;;21.70;99.90;;;;;;5092794;28;20455;-77
2023/06/25 06:30:49;;;;;;;7.50;6.90;;;21.70;99.90;;;;;;5092713;28;20454;-77
2023/06/25 06:36:15;;;;;;;7.43;6.73;;;21.80;99.90;;;;;;5089568;28;20480;-77
2023/06/25 06:38:46;;;;;;;7.00;6.40;;;22.00;99.90;;;;;;5093123;28;20437;-76
2023/06/25 06:41:18;;;;;;;7.27;6.57;;;22.10;99.90;;;;;;5093949;28;20469;-75
2023/06/25 06:43:51;;;;;;;7.10;6.50;;;22.20;99.90;;;;;;5091816;28;20475;-78
2023/06/25 06:46:51;;;;;;;6.83;6.33;;;22.30;99.90;;;;;;5090828;28;20462;-77
2023/06/25 06:49:23;;;;;;;7.17;6.57;;;22.30;99.90;;;;;;5065001;28;20447;-77
2023/06/25 06:52:04;;;;;;;7.20;6.47;;;22.40;99.90;;;;;;5089557;28;20453;-77
2023/06/25 06:54:33;;;;;;;7.80;7.10;;;22.60;99.90;;;;;;5088883;28;20438;-78
2023/06/25 06:57:15;;;;;;;10.30;9.37;;;22.70;99.90;;;;;;5088724;28;20475;-77
2023/06/25 06:59:49;;;;;;;8.47;7.20;;;22.70;99.90;;;;;;5090078;28;20532;-77
2023/06/25 07:02:23;;;;;;;7.83;7.23;;;22.90;99.90;;;;;;5091880;28;20477;-75
2023/06/25 07:04:57;;;;;;;7.60;6.90;;;22.80;99.90;;;;;;5094125;28;20452;-77
2023/06/25 07:07:36;;;;;;;6.83;6.30;;;23.00;99.90;;;;;;5096073;28;20423;-77
2023/06/25 07:10:10;;;;;;;7.87;7.27;;;23.00;99.90;;;;;;5095281;28;20413;-77
2023/06/25 07:12:46;;;;;;;6.90;6.30;;;23.20;99.90;;;;;;5096139;28;20450;-76
2023/06/25 07:15:24;;;;;;;7.63;7.03;;;23.30;99.90;;;;;;5095851;28;20530;-76
2023/06/25 07:18:06;;;;;;;7.50;6.90;;;23.40;99.90;;;;;;5094796;28;20469;-75
2023/06/25 07:20:42;;;;;;;7.20;6.60;;;23.50;99.90;;;;;;5094119;28;20456;-76
2023/06/25 07:23:30;;;;;;;7.50;6.90;;;23.60;99.90;;;;;;5093749;28;20480;-76
2023/06/25 07:28:55;;;;;;;8.00;7.40;;;23.60;99.90;;;;;;5091300;28;20452;-77
2023/06/25 07:31:35;;;;;;;7.27;6.67;;;23.50;99.90;;;;;;5093706;28;20444;-77
2023/06/25 07:34:13;;;;;;;7.90;7.30;;;23.50;99.90;;;;;;5093131;28;20461;-77
2023/06/25 07:36:53;;;;;;;8.07;7.47;;;23.60;99.90;;;;;;5094924;28;20479;-76
2023/06/25 07:39:39;;;;;;;7.87;7.27;;;23.80;99.90;;;;;;5095933;28;20445;-76
2023/06/25 07:42:19;;;;;;;8.93;8.13;;;23.80;99.90;;;;;;5086838;28;20450;-77
2023/06/25 07:44:55;;;;;;;7.90;7.20;;;23.90;99.90;;;;;;5087797;28;20442;-78
2023/06/25 07:47:49;;;;;;;8.70;8.00;;;24.00;99.90;;;;;;5089803;28;20510;-77
2023/06/25 07:53:45;;;;;;;13.13;8.43;;;24.30;99.90;;;;;;5085731;28;20462;-76
2023/06/25 08:00:16;;;;;;;8.70;7.90;;;24.70;99.90;;;;;;5021686;28;20677;-76
2023/06/25 08:03:00;;;;;;;8.07;7.40;;;24.80;99.90;;;;;;5086619;28;20473;-78
2023/06/25 08:05:43;;;;;;;8.43;7.60;;;24.70;99.90;;;;;;5084771;28;20459;-78
2023/06/25 08:11:44;;;;;;;8.03;7.43;;;24.90;99.90;;;;;;5057393;28;20440;-78
2023/06/25 08:14:14;;;;;;;8.87;7.83;;;25.10;99.90;;;;;;5062207;28;20461;-77
2023/06/25 08:17:08;;;;;;;9.30;8.50;;;25.00;99.90;;;;;;5064446;28;20566;-77
2023/06/25 08:19:45;;;;;;;9.10;8.40;;;25.00;99.90;;;;;;5064383;28;20532;-76
2023/06/25 08:25:33;;;;;;;;;;;;;;;;;;;;;
2023/06/25 08:28:08;;;;;;;9.07;8.23;;;25.50;99.90;;;;;;5065328;28;20441;-78
2023/06/25 08:30:48;;;;;;;8.93;7.90;;;25.50;99.90;;;;;;5067427;28;20437;-77
2023/06/25 08:33:23;;;;;;;7.80;7.10;;;25.40;99.90;;;;;;5065901;28;20480;-78
2023/06/25 08:36:16;;;;;;;9.60;8.80;;;25.70;99.90;;;;;;5065482;28;20823;-78
2023/06/25 08:38:52;;;;;;;8.67;7.93;;;25.80;99.90;;;;;;5065436;28;20475;-77
2023/06/25 08:41:40;;;;;;;9.03;8.20;;;25.80;99.90;;;;;;5068264;28;20476;-78
2023/06/25 08:53:01;;;;;;;9.40;8.50;;;26.50;98.20;;;;;;5060428;28;20532;-79
2023/06/25 08:55:37;;;;;;;9.13;8.43;;;26.50;96.70;;;;;;5059822;28;20480;-78
2023/06/25 08:58:15;;;;;;;9.07;8.27;;;26.60;97.30;;;;;;5059243;28;20508;-77
2023/06/25 09:00:53;;;;;;;9.60;8.80;;;26.70;97.00;;;;;;5060063;28;20472;-77
2023/06/25 09:03:24;;;;;;;9.00;8.20;;;26.50;96.40;;;;;;5058711;28;20850;-77
2023/06/25 09:05:59;;;;;;;9.07;8.37;;;26.40;96.20;;;;;;5059377;28;20460;-78
2023/06/25 09:08:30;;;;;;;8.40;7.70;;;26.30;95.80;;;;;;5058490;28;20451;-78
2023/06/25 09:11:11;;;;;;;9.10;8.40;;;26.50;95.60;;;;;;5060199;28;20470;-77
2023/06/25 09:13:51;;;;;;;9.40;8.60;;;26.90;94.80;;;;;;5064137;28;20588;-77
2023/06/25 09:16:30;;;;;;;8.80;8.10;;;27.10;93.80;;;;;;5082881;28;20471;-78
2023/06/25 09:19:20;;;;;;;9.23;8.43;;;27.00;93.10;;;;;;5082553;28;20437;-78
2023/06/25 09:22:02;;;;;;;8.50;7.77;;;27.30;92.10;;;;;;5067078;28;20453;-78
2023/06/25 09:24:55;;;;;;;8.10;7.30;;;27.50;90.20;;;;;;5066093;28;20493;-79
2023/06/25 09:27:31;;;;;;;8.70;8.00;;;27.50;88.30;;;;;;5068934;28;20438;-77
2023/06/25 09:30:16;;;;;;;7.87;7.27;;;27.80;88.30;;;;;;5068799;28;20869;-77
2023/06/25 09:32:53;;;;;;;9.07;8.17;;;28.10;86.90;;;;;;5061259;28;20874;-78
2023/06/25 09:35:28;;;;;;;7.83;7.23;;;28.10;87.20;;;;;;5060308;28;20445;-77
2023/06/25 09:37:59;;;;;;;9.10;7.40;;;28.30;85.60;;;;;;5071291;28;20469;-76
2023/06/25 09:40:31;;;;;;;8.40;7.60;;;28.50;84.80;;;;;;5085239;28;20448;-77
2023/06/25 09:43:07;;;;;;;7.53;6.93;;;28.80;79.70;;;;;;5079747;28;20514;-76
2023/06/25 09:45:43;;;;;;;8.13;7.43;;;29.10;79.50;;;;;;5080877;28;20456;-78
2023/06/25 09:48:21;;;;;;;7.97;7.37;;;29.40;77.80;;;;;;5079811;28;20530;-78
2023/06/25 09:50:55;;;;;;;6.93;6.33;;;29.50;75.70;;;;;;5080885;28;20456;-77
2023/06/25 09:53:26;;;;;;;8.07;7.47;;;29.70;76.00;;;;;;5078248;28;20857;-78
2023/06/25 09:55:58;;;;;;;7.40;6.80;;;29.70;72.10;;;;;;5078731;28;20459;-78
2023/06/25 09:58:30;;;;;;;7.80;7.20;;;30.00;69.90;;;;;;5076159;28;20469;-77
2023/06/25 10:00:59;;;;;;;7.73;7.13;;;30.20;67.10;;;;;;5077025;28;20485;-77
2023/06/25 10:03:29;;;;;;;8.30;7.60;;;30.10;68.20;;;;;;5057789;28;20555;-77
2023/06/25 10:05:57;;;;;;;8.37;7.67;;;30.40;69.10;;;;;;5076484;28;20540;-79
2023/06/25 10:08:26;;;;;;;8.17;7.50;;;30.00;68.90;;;;;;5076116;28;20540;-78
2023/06/25 10:10:59;;;;;;;7.37;6.87;;;30.30;68.60;;;;;;5076762;28;20441;-79
2023/06/25 10:13:31;;;;;;;7.97;7.40;;;30.40;67.10;;;;;;5078863;28;20473;-77
2023/06/25 10:16:00;;;;;;;8.10;7.50;;;30.60;65.90;;;;;;5076508;28;20831;-77
2023/06/25 10:18:41;;;;;;;7.90;7.30;;;30.90;64.70;;;;;;5076268;28;21045;-76
2023/06/25 10:21:20;;;;;;;7.60;7.00;;;30.80;62.20;;;;;;5066643;28;20457;-76
2023/06/25 10:24:05;;;;;;;7.40;6.80;;;30.90;61.50;;;;;;5057426;28;20465;-78
2023/06/25 10:26:40;;;;;;;8.03;7.43;;;31.30;61.30;;;;;;5056936;28;20464;-78
2023/06/25 10:29:16;;;;;;;8.03;7.43;;;31.80;60.30;;;;;;5065150;28;20452;-78
2023/06/25 10:31:47;;;;;;;7.90;7.30;;;31.90;59.40;;;;;;5074455;28;20502;-80
2023/06/25 10:37:10;;;;;;;8.17;7.50;;;31.60;59.10;;;;;;5080770;28;20525;-76
2023/06/25 10:39:46;;;;;;;8.10;7.50;;;31.50;59.30;;;;;;5086647;28;20436;-76
2023/06/25 10:42:16;;;;;;;9.70;8.90;;;31.40;58.40;;;;;;5086352;28;20653;-76
2023/06/25 10:44:53;;;;;;;8.80;8.10;;;31.10;59.10;;;;;;5083603;28;20455;-78
2023/06/25 10:48:06;;;;;;;8.40;7.60;;;31.40;57.10;;;;;;5069314;28;20449;-78
2023/06/25 10:50:35;;;;;;;8.50;7.90;;;31.40;57.00;;;;;;5085240;28;20832;-78
2023/06/25 10:53:11;;;;;;;8.30;7.70;;;31.80;57.30;;;;;;5087586;28;20479;-77
2023/06/25 10:55:45;;;;;;;8.90;8.20;;;32.10;57.00;;;;;;5093981;28;20508;-76
2023/06/25 10:58:18;;;;;;;8.23;7.60;;;31.80;56.50;;;;;;5093995;28;20449;-77
2023/06/25 11:00:56;;;;;;;8.60;8.00;;;32.10;56.70;;;;;;5093923;28;20524;-78
2023/06/25 11:03:24;;;;;;;8.90;8.10;;;32.40;56.00;;;;;;5092984;28;20471;-76
2023/06/25 11:05:58;;;;;;;8.47;7.80;;;32.30;55.70;;;;;;5088869;28;20945;-78
2023/06/25 11:08:29;;;;;;;8.73;8.00;;;32.60;54.90;;;;;;5086835;28;20431;-78
2023/06/25 11:11:05;;;;;;;8.13;7.53;;;31.80;55.00;;;;;;5080672;28;20680;-78
2023/06/25 11:13:47;;;;;;;8.87;8.17;;;31.30;55.20;;;;;;5080636;28;20460;-77
2023/06/25 11:16:16;;;;;;;8.30;7.57;;;31.90;55.10;;;;;;5067963;28;20461;-80
2023/06/25 11:18:46;;;;;;;8.40;7.73;;;32.60;54.30;;;;;;5057790;28;20478;-79
2023/06/25 11:21:15;;;;;;;8.03;7.43;;;32.80;52.70;;;;;;5068414;28;21010;-79
2023/06/25 11:23:44;;;;;;;8.93;7.97;;;32.90;52.50;;;;;;5079100;28;20477;-77
2023/06/25 11:26:12;;;;;;;8.50;7.70;;;32.60;53.20;;;;;;5080089;28;20456;-79
2023/06/25 11:28:40;;;;;;;8.60;7.90;;;33.00;51.70;;;;;;5079899;28;20506;-80
2023/06/25 11:31:13;;;;;;;8.53;7.93;;;33.10;52.00;;;;;;5079221;28;20874;-79
2023/06/25 11:33:42;;;;;;;8.57;7.83;;;33.30;51.40;;;;;;5078919;28;21033;-80
2023/06/25 11:36:11;;;;;;;8.27;7.67;;;33.50;51.30;;;;;;5093917;28;20441;-78
2023/06/25 11:38:44;;;;;;;7.90;7.20;;;33.50;49.80;;;;;;5090263;28;20516;-80
2023/06/25 11:41:12;;;;;;;7.60;7.00;;;33.20;50.80;;;;;;5086812;28;20453;-78
2023/06/25 11:43:42;;;;;;;7.30;6.80;;;32.90;50.30;;;;;;5087706;28;21014;-78
2023/06/25 11:46:14;;;;;;;8.03;7.43;;;33.30;50.40;;;;;;5087756;28;20546;-78
2023/06/25 11:48:55;;;;;;;7.37;6.87;;;33.70;49.80;;;;;;5083030;28;20511;-79
2023/06/25 11:51:25;;;;;;;8.27;7.57;;;33.70;49.00;;;;;;5082332;28;20440;-79
2023/06/25 11:53:56;;;;;;;8.87;8.17;;;34.00;48.40;;;;;;5084172;28;21049;-79
2023/06/25 11:56:23;;;;;;;8.90;8.10;;;34.00;48.50;;;;;;5086179;28;20437;-79
2023/06/25 11:58:50;;;;;;;7.90;7.30;;;34.40;48.40;;;;;;5076926;28;20466;-79
2023/06/25 12:01:19;;;;;;;9.83;7.67;;;34.70;47.70;;;;;;5077799;28;20441;-79
2023/06/25 12:03:58;;;;;;;9.00;8.20;;;34.90;46.90;;;;;;5076879;28;20466;-79
2023/06/25 12:06:34;;;;;;;8.77;8.17;;;34.70;46.20;;;;;;5077936;28;20449;-78
2023/06/25 12:09:07;;;;;;;8.27;7.67;;;33.80;46.90;;;;;;5077420;28;20509;-81
2023/06/25 12:11:51;;;;;;;7.30;6.80;;;33.80;47.50;;;;;;5078226;28;20434;-79
2023/06/25 12:14:30;;;;;;;8.17;7.67;;;34.50;46.20;;;;;;5078026;28;20480;-80
2023/06/25 12:17:03;;;;;;;8.53;7.80;;;35.00;46.50;;;;;;5078194;28;20441;-78
2023/06/25 12:19:40;;;;;;;7.73;7.03;;;35.40;45.70;;;;;;5076921;28;20521;-79
2023/06/25 12:25:32;;;;;;;8.40;7.67;;;35.90;44.30;;;;;;5066298;28;20431;-78
2023/06/25 12:28:22;;;;;;;8.13;7.53;;;35.20;44.80;;;;;;5075396;28;20434;-80
2023/06/25 12:31:13;;;;;;;8.60;7.90;;;35.50;44.60;;;;;;5071938;28;20446;-78
2023/06/25 12:33:59;;;;;;;8.50;7.90;;;36.00;44.40;;;;;;5089229;28;20469;-78
2023/06/25 12:37:03;;;;;;;8.50;7.80;;;36.20;43.20;;;;;;5091099;28;20445;-78
2023/06/25 12:40:15;;;;;;;9.30;8.53;;;36.00;42.80;;;;;;5095525;28;20475;-77
2023/06/25 12:43:03;;;;;;;8.67;7.50;;;35.90;43.10;;;;;;5095799;28;20464;-79
2023/06/25 12:45:53;;;;;;;;;;;;;;;;;;;;;
2023/06/25 12:48:52;;;;;;;8.20;7.60;;;36.00;43.30;;;;;;5096646;28;20456;-79
2023/06/25 12:51:45;;;;;;;8.10;7.43;;;36.50;42.10;;;;;;5095661;28;20893;-78
2023/06/25 12:54:22;;;;;;;8.27;7.57;;;36.60;42.20;;;;;;5093370;28;20481;-79
2023/06/25 12:56:49;;;;;;;7.57;7.00;;;36.40;42.00;;;;;;5085753;28;20475;-79
2023/06/25 12:59:27;;;;;;;8.10;7.40;;;36.20;41.70;;;;;;5081554;28;20562;-78
2023/06/25 13:01:56;;;;;;;8.80;7.93;;;36.40;42.10;;;;;;5082255;28;20456;-77
2023/06/25 13:04:24;;;;;;;8.00;7.40;;;36.20;42.10;;;;;;5081539;28;20457;-78
2023/06/25 13:07:05;;;;;;;7.97;7.37;;;36.10;41.70;;;;;;5083478;28;20448;-78
2023/06/25 13:09:41;;;;;;;8.17;7.57;;;36.00;41.60;;;;;;5084579;28;20473;-79
2023/06/25 13:12:19;;;;;;;8.23;7.63;;;36.40;41.40;;;;;;5083360;28;20460;-80
2023/06/25 13:14:52;;;;;;;8.10;7.40;;;36.70;41.10;;;;;;5084556;28;20506;-79
2023/06/25 13:17:24;;;;;;;8.83;8.13;;;35.90;40.50;;;;;;5083848;28;20453;-78
2023/06/25 13:19:57;;;;;;;7.87;7.37;;;34.60;42.40;;;;;;5087038;28;20477;-79
2023/06/25 13:22:42;;;;;;;7.03;6.53;;;34.30;42.10;;;;;;5086199;28;20874;-78
2023/06/25 13:25:18;;;;;;;8.47;7.80;;;34.90;42.70;;;;;;5084633;28;20457;-76
2023/06/25 13:27:46;;;;;;;8.03;7.43;;;35.50;41.80;;;;;;5084878;28;20444;-77
2023/06/25 13:30:16;;;;;;;8.40;7.60;;;35.90;41.20;;;;;;5085240;28;20448;-79
2023/06/25 13:35:46;;;;;;;8.03;7.43;;;36.70;40.40;;;;;;5084442;28;20506;-79
2023/06/25 13:38:33;;;;;;;8.67;7.97;;;36.80;40.20;;;;;;5092995;28;20472;-76
2023/06/25 13:41:34;;;;;;;8.50;7.90;;;36.30;40.20;;;;;;5093320;28;20429;-78
2023/06/25 13:44:09;;;;;;;8.27;7.67;;;36.70;39.90;;;;;;5093588;28;20498;-78
2023/06/25 13:46:50;;;;;;;8.00;7.40;;;36.70;39.50;;;;;;5092855;28;20448;-79
2023/06/25 13:49:38;;;;;;;8.00;7.30;;;37.10;38.90;;;;;;5094190;28;20451;-77
2023/06/25 13:52:24;;;;;;;;;;;;;;;;;;;;;
2023/06/25 13:55:04;;;;;;;8.93;8.23;;;;;;;;;;5096473;28;20417;-80
2023/06/25 13:57:45;;;;;;;7.70;7.20;;;;;;;;;;5097077;28;20436;-76
2023/06/25 14:00:34;;;;;;;8.07;7.47;;;;;;;;;;5097233;28;20480;-79
2023/06/25 14:03:11;;;;;;;7.73;7.23;;;;;;;;;;5094925;28;20495;-79
2023/06/25 14:05:54;;;;;;;7.80;7.20;;;;;;;;;;5094314;28;20471;-80
2023/06/25 14:08:24;;;;;;;9.30;8.40;;;;;;;;;;5091908;28;20443;-77
2023/06/25 14:13:46;;;;;;;8.13;7.53;;;;;;;;;;5083772;28;20463;-77
2023/06/25 14:16:13;;;;;;;7.73;7.23;;;37.20;37.30;;;;;;5081217;28;20444;-81
2023/06/25 14:18:47;;;;;;;7.67;7.07;;;36.60;38.10;;;;;;5084831;28;20512;-77
2023/06/25 14:21:38;;;;;;;;;;;;;;;;;;;;;
2023/06/25 14:24:06;;;;;;;7.90;7.37;;;36.40;38.30;;;;;;5058718;28;20457;-80
2023/06/25 14:26:35;;;;;;;8.13;7.53;;;37.10;38.10;;;;;;5054184;28;20464;-80
2023/06/25 14:32:45;;;;;;;;;;;;;;;;;;;;;
2023/06/25 14:35:29;;;;;;;8.30;7.70;;;37.90;36.60;;;;;;5059911;28;20472;-78
2023/06/25 14:38:04;;;;;;;7.90;7.30;;;37.30;36.30;;;;;;5058904;28;20452;-79
2023/06/25 14:40:46;;;;;;;7.83;7.13;;;36.80;36.30;;;;;;5065629;28;20528;-78
2023/06/25 14:43:23;;;;;;;8.33;7.37;;;37.00;36.30;;;;;;5066880;28;20462;-78
2023/06/25 14:45:53;;;;;;;7.37;6.87;;;37.40;36.10;;;;;;5067316;28;20438;-79
2023/06/25 14:48:22;;;;;;;7.47;6.97;;;37.70;35.80;;;;;;5067086;28;20476;-79
2023/06/25 14:50:59;;;;;;;7.20;6.60;;;37.70;35.50;;;;;;5074088;28;20450;-78
2023/06/25 14:53:31;;;;;;;6.70;6.20;;;37.20;36.30;;;;;;5072489;28;20442;-79
2023/06/25 14:56:02;;;;;;;7.53;7.03;;;36.90;35.70;;;;;;5073051;28;20471;-80
2023/06/25 14:58:33;;;;;;;7.40;6.90;;;36.50;36.50;;;;;;5072597;28;20462;-80
2023/06/25 15:01:14;;;;;;;7.23;6.80;;;36.60;35.90;;;;;;5072820;28;20452;-79
2023/06/25 15:03:49;;;;;;;7.20;6.70;;;;;;;;;;5074446;28;20513;-81
2023/06/25 15:06:18;;;;;;;7.20;6.70;;;;;;;;;;5076883;28;20436;-78
2023/06/25 15:08:46;;;;;;;7.63;6.93;;;;;;;;;;5076670;28;20453;-77
2023/06/25 15:11:15;;;;;;;7.40;6.90;;;;;;;;;;5076408;28;20469;-82
2023/06/25 15:13:45;;;;;;;7.07;6.57;;;;;;;;;;5074694;28;20541;-78
2023/06/25 15:16:14;;;;;;;7.13;6.73;;;;;;;;;;5071962;28;20476;-80
2023/06/25 15:18:45;;;;;;;6.93;6.40;;;;;;;;;;5069406;28;20477;-78
2023/06/25 15:21:16;;;;;;;7.90;7.17;;;;;;;;;;5069437;28;20446;-78
2023/06/25 15:23:48;;;;;;;7.00;6.50;;;;;;;;;;5073640;28;20465;-78
2023/06/25 15:26:17;;;;;;;7.40;6.80;;;;;;;;;;5076497;28;20453;-76